Airfield :







YOU CAN JOIN US ON...

 
LOGIN :

Register | Disclaimer

   EN    FR    IT 

 









Legend :    VFR   Marginal VFR   IFR   Intensive IFR   Very Intensive IFR
Visi :
Ceiling :
>= 8 km
>= 3000ft
5 to 8 km
1000 to 3000 ft
1500m to 5 km
500 to 1000 ft
800 to 1500m
200 to 500 ft
< 800m
< 200 ft
Symbols :   Thunderstorms  Fog  Heavy snow  Heavy precipitations  Wind > 20 kt







- Airport Elevation : 108 ft
- IATA code : YAY


CYAY - St Anthony

CURRENT METAR :
  • 161344Z AUTO 02012G17KT 4SM BR BKN006 OVC010 10/09 A2979 RMK SLP090

EXPIRED METARs :
  • 161312Z AUTO 02015KT 3SM BR OVC006 10/09 A2979 RMK SLP089
  • 161300Z AUTO 03012G18KT 2 1/2SM -RA BR BKN004 OVC008 10/09 A2978 RMK SLP088
  • 161253Z AUTO 03014KT 2SM -RA BR BKN004 OVC008 10/09 A2978 RMK SLP086
  • 161237Z AUTO 03013KT 1 3/4SM -RA BR OVC004 09/09 A2978 RMK SLP086
  • 161216Z AUTO 03013G20KT 2SM -RA BR OVC004 09/09 A2978 RMK SLP086
  • 161200Z AUTO 02011G17KT 1 3/4SM -RA BR OVC004 10/09 A2977 RMK SLP084
  • 161133Z AUTO 02012G17KT 310V030 1 1/4SM -RA BR BKN004 OVC010 11/10 A2976 RMK SLP081
  • 161116Z AUTO 30005KT 1 1/4SM -RA BR OVC002 11/11 A2976 RMK SLP079
  • 161103Z AUTO 33005KT 3SM BR OVC002 11/11 A2975 RMK SLP077

TAF TAF CYAY
Valid from the 16 at 14:00 until the 17 at 02:00 UTC


161338Z 1614/1702 02012G22KT 2SM -SHRA BR OVC004
TEMPO 1614/1617 6SM BR OVC010
FM161700 02012G22KT P6SM OVC015
TEMPO 1617/1620 3SM -SHRA BR OVC008
FM162000 36012G22KT P6SM BKN020
BECMG 1622/1624 34015G25KT RMK FCST BASED ON AUTO OBS. NXT FCST BY 162000Z
No reported NOTAMs for that airfield.



MET'MAP, your aeronautical weather chart ! - Copyright ORBIFLY December 2007 - Disclaimer

ORBIFLY MET'MAP TEAM :

Programming & Development : Alexandra Zaïnal
Concept & Development : Baudouin d'Aumeries
Co-Development & Prog : Marc-Olivier Méhu
Technical & hardware support : Manuel Goepfert

Contact : metmap@orbifly.com




SOURCES & CREDITS :

   NOAA